MRB weather

Eastern WV Regional Airport/Shepherd Field
Martinsburg, West Virginia, United States

Public forecast

Using degrees Fahrenheit for public forecast. Weather courtesy of forecast.io.

METAR (pilot weather report)

Retrieved 2019/09/21 06:53 UTC (51 minutes ago):

KMRB 210653Z AUTO 00000KT 10SM CLR 12/11 A3023 RMK AO2 SLP233 T01220111

TAF (pilot weather forecast)

Retrieved 2019/09/21 06:39 UTC (1 hour ago):

TAF KMRB 210537Z 2106/2206 00000KT P6SM SKC FM211500 00000KT P6SM FEW060 SCT250